sensor_id;sensor_type;location;lat;lon;timestamp;pressure;altitude;pressure_sealevel;temperature;humidity
10060;BME280;5069;49.306;8.636;2023-12-20T00:01:44;100716.03;;;5.81;100.00
10060;BME280;5069;49.306;8.636;2023-12-20T00:04:45;100715.16;;;5.86;100.00
10060;BME280;5069;49.306;8.636;2023-12-20T00:07:47;100720.38;;;5.87;100.00
10060;BME280;5069;49.306;8.636;2023-12-20T00:10:49;100707.28;;;5.90;100.00
10060;BME280;5069;49.306;8.636;2023-12-20T00:13:51;100709.03;;;5.88;100.00
10060;BME280;5069;49.306;8.636;2023-12-20T00:16:53;100709.91;;;5.89;100.00
10060;BME280;5069;49.306;8.636;2023-12-20T00:19:54;100712.50;;;5.90;100.00
10060;BME280;5069;49.306;8.636;2023-12-20T00:22:57;100712.53;;;5.89;100.00
10060;BME280;5069;49.306;8.636;2023-12-20T00:26:01;100713.38;;;5.92;100.00
10060;BME280;5069;49.306;8.636;2023-12-20T00:29:03;100716.00;;;5.89;100.00
10060;BME280;5069;49.306;8.636;2023-12-20T00:32:05;100717.75;;;5.87;100.00
10060;BME280;5069;49.306;8.636;2023-12-20T00:35:06;100712.50;;;5.90;100.00
10060;BME280;5069;49.306;8.636;2023-12-20T00:38:08;100718.63;;;5.88;100.00
10060;BME280;5069;49.306;8.636;2023-12-20T00:41:10;100715.13;;;5.90;100.00
10060;BME280;5069;49.306;8.636;2023-12-20T00:44:11;100706.44;;;5.85;100.00
10060;BME280;5069;49.306;8.636;2023-12-20T00:47:13;100706.44;;;5.82;100.00
10060;BME280;5069;49.306;8.636;2023-12-20T00:50:15;100703.81;;;5.85;100.00
10060;BME280;5069;49.306;8.636;2023-12-20T00:53:17;100706.38;;;5.93;100.00
10060;BME280;5069;49.306;8.636;2023-12-20T00:56:18;100699.44;;;5.90;100.00
10060;BME280;5069;49.306;8.636;2023-12-20T00:59:19;100693.31;;;5.91;100.00
10060;BME280;5069;49.306;8.636;2023-12-20T01:02:21;100701.13;;;5.96;100.00
10060;BME280;5069;49.306;8.636;2023-12-20T01:05:22;100693.31;;;5.91;100.00
10060;BME280;5069;49.306;8.636;2023-12-20T01:08:24;100690.66;;;5.93;100.00
10060;BME280;5069;49.306;8.636;2023-12-20T01:11:26;100702.84;;;5.97;100.00
10060;BME280;5069;49.306;8.636;2023-12-20T01:14:28;100703.75;;;5.94;100.00
10060;BME280;5069;49.306;8.636;2023-12-20T01:17:29;100695.06;;;5.88;100.00
10060;BME280;5069;49.306;8.636;2023-12-20T01:20:31;100696.81;;;5.90;100.00
10060;BME280;5069;49.306;8.636;2023-12-20T01:23:32;100689.88;;;5.83;100.00
10060;BME280;5069;49.306;8.636;2023-12-20T01:26:34;100685.47;;;5.88;100.00
10060;BME280;5069;49.306;8.636;2023-12-20T01:29:36;100684.63;;;5.83;100.00
10060;BME280;5069;49.306;8.636;2023-12-20T01:32:37;100684.63;;;5.83;100.00
10060;BME280;5069;49.306;8.636;2023-12-20T01:35:39;100674.16;;;5.83;100.00
10060;BME280;5069;49.306;8.636;2023-12-20T01:38:41;100683.75;;;5.82;100.00
10060;BME280;5069;49.306;8.636;2023-12-20T01:41:42;100678.53;;;5.82;100.00
10060;BME280;5069;49.306;8.636;2023-12-20T01:44:44;100681.06;;;5.93;100.00
10060;BME280;5069;49.306;8.636;2023-12-20T01:47:45;100688.97;;;5.90;100.00
10060;BME280;5069;49.306;8.636;2023-12-20T01:50:48;100682.00;;;5.85;100.00
10060;BME280;5069;49.306;8.636;2023-12-20T01:53:49;100679.38;;;5.86;100.00
10060;BME280;5069;49.306;8.636;2023-12-20T01:56:51;100679.34;;;5.92;100.00
10060;BME280;5069;49.306;8.636;2023-12-20T01:59:53;100678.50;;;5.92;100.00
10060;BME280;5069;49.306;8.636;2023-12-20T02:02:54;100679.31;;;5.95;100.00
10060;BME280;5069;49.306;8.636;2023-12-20T02:05:56;100685.44;;;5.93;100.00
10060;BME280;5069;49.306;8.636;2023-12-20T02:08:58;100683.63;;;5.99;100.00
10060;BME280;5069;49.306;8.636;2023-12-20T02:12:00;100683.69;;;5.93;100.00
10060;BME280;5069;49.306;8.636;2023-12-20T02:15:01;100684.59;;;5.89;100.00
10060;BME280;5069;49.306;8.636;2023-12-20T02:18:04;100682.78;;;5.97;100.00
10060;BME280;5069;49.306;8.636;2023-12-20T02:21:06;100682.84;;;5.91;100.00
10060;BME280;5069;49.306;8.636;2023-12-20T02:24:07;100682.88;;;5.88;100.00
10060;BME280;5069;49.306;8.636;2023-12-20T02:27:09;100688.91;;;5.93;100.00
10060;BME280;5069;49.306;8.636;2023-12-20T02:30:10;100679.31;;;5.94;100.00
10060;BME280;5069;49.306;8.636;2023-12-20T02:33:13;100681.13;;;5.90;100.00
10060;BME280;5069;49.306;8.636;2023-12-20T02:36:15;100682.81;;;5.96;100.00
10060;BME280;5069;49.306;8.636;2023-12-20T02:39:18;100674.16;;;5.89;100.00
10060;BME280;5069;49.306;8.636;2023-12-20T02:42:20;100692.41;;;5.94;100.00
10060;BME280;5069;49.306;8.636;2023-12-20T02:45:21;100700.28;;;5.92;100.00
10060;BME280;5069;49.306;8.636;2023-12-20T02:48:23;100696.75;;;5.93;100.00
10060;BME280;5069;49.306;8.636;2023-12-20T02:51:24;100703.69;;;5.99;100.00
10060;BME280;5069;49.306;8.636;2023-12-20T02:54:26;100698.50;;;5.94;100.00
10060;BME280;5069;49.306;8.636;2023-12-20T02:57:27;100692.41;;;5.94;100.00
10060;BME280;5069;49.306;8.636;2023-12-20T03:00:29;100691.53;;;5.96;100.00
10060;BME280;5069;49.306;8.636;2023-12-20T03:03:31;100688.03;;;5.97;100.00
10060;BME280;5069;49.306;8.636;2023-12-20T03:06:33;100672.34;;;5.94;100.00
10060;BME280;5069;49.306;8.636;2023-12-20T03:09:34;100675.00;;;5.91;100.00
10060;BME280;5069;49.306;8.636;2023-12-20T03:12:55;100687.09;;;6.01;100.00
10060;BME280;5069;49.306;8.636;2023-12-20T03:15:57;100682.72;;;6.03;100.00
10060;BME280;5069;49.306;8.636;2023-12-20T03:18:58;100674.94;;;5.97;100.00
10060;BME280;5069;49.306;8.636;2023-12-20T03:22:00;100689.72;;;5.98;100.00
10060;BME280;5069;49.306;8.636;2023-12-20T03:25:02;100698.50;;;5.96;100.00
10060;BME280;5069;49.306;8.636;2023-12-20T03:28:04;100691.53;;;5.93;100.00
10060;BME280;5069;49.306;8.636;2023-12-20T03:31:06;100693.25;;;5.97;100.00
10060;BME280;5069;49.306;8.636;2023-12-20T03:34:07;100685.41;;;5.97;100.00
10060;BME280;5069;49.306;8.636;2023-12-20T03:37:09;100674.09;;;5.95;100.00
10060;BME280;5069;49.306;8.636;2023-12-20T03:40:11;100681.06;;;5.95;100.00
10060;BME280;5069;49.306;8.636;2023-12-20T03:43:12;100681.06;;;5.96;100.00
10060;BME280;5069;49.306;8.636;2023-12-20T03:46:14;100687.03;;;6.06;100.00
10060;BME280;5069;49.306;8.636;2023-12-20T03:49:15;100681.00;;;6.01;100.00
10060;BME280;5069;49.306;8.636;2023-12-20T03:52:17;100676.63;;;6.01;100.00
10060;BME280;5069;49.306;8.636;2023-12-20T03:55:18;100680.94;;;6.04;100.00
10060;BME280;5069;49.306;8.636;2023-12-20T03:58:20;100681.88;;;6.03;100.00
10060;BME280;5069;49.306;8.636;2023-12-20T04:01:22;100673.97;;;6.06;100.00
10060;BME280;5069;49.306;8.636;2023-12-20T04:04:23;100685.34;;;6.02;100.00
10060;BME280;5069;49.306;8.636;2023-12-20T04:07:25;100679.25;;;5.98;100.00
10060;BME280;5069;49.306;8.636;2023-12-20T04:10:26;100679.22;;;6.04;100.00
10060;BME280;5069;49.306;8.636;2023-12-20T04:13:28;100674.03;;;5.98;100.00
10060;BME280;5069;49.306;8.636;2023-12-20T04:16:29;100671.41;;;6.01;100.00
10060;BME280;5069;49.306;8.636;2023-12-20T04:19:31;100681.88;;;6.00;100.00
10060;BME280;5069;49.306;8.636;2023-12-20T04:22:32;100681.00;;;5.99;100.00
10060;BME280;5069;49.306;8.636;2023-12-20T04:25:34;100690.59;;;6.00;100.00
10060;BME280;5069;49.306;8.636;2023-12-20T04:28:36;100694.06;;;6.02;100.00
10060;BME280;5069;49.306;8.636;2023-12-20T04:31:37;100695.84;;;5.99;100.00
10060;BME280;5069;49.306;8.636;2023-12-20T04:34:39;100702.78;;;6.03;100.00
10060;BME280;5069;49.306;8.636;2023-12-20T04:37:40;100710.59;;;6.04;100.00
10060;BME280;5069;49.306;8.636;2023-12-20T04:40:42;100713.16;;;6.15;100.00
10060;BME280;5069;49.306;8.636;2023-12-20T04:43:43;100718.38;;;6.13;100.00
10060;BME280;5069;49.306;8.636;2023-12-20T04:46:44;100708.84;;;6.09;100.00
10060;BME280;5069;49.306;8.636;2023-12-20T04:49:46;100728.91;;;6.06;100.00
10060;BME280;5069;49.306;8.636;2023-12-20T04:52:47;100726.25;;;6.12;100.00
10060;BME280;5069;49.306;8.636;2023-12-20T04:55:49;100726.25;;;6.10;100.00
10060;BME280;5069;49.306;8.636;2023-12-20T04:58:50;100741.88;;;6.19;100.00
10060;BME280;5069;49.306;8.636;2023-12-20T05:01:52;100731.47;;;6.13;100.00
10060;BME280;5069;49.306;8.636;2023-12-20T05:04:54;100735.78;;;6.16;100.00
10060;BME280;5069;49.306;8.636;2023-12-20T05:07:56;100738.34;;;6.22;100.00
10060;BME280;5069;49.306;8.636;2023-12-20T05:10:58;100738.38;;;6.20;100.00
10060;BME280;5069;49.306;8.636;2023-12-20T05:14:00;100741.88;;;6.19;100.00
10060;BME280;5069;49.306;8.636;2023-12-20T05:17:01;100741.84;;;6.22;100.00
10060;BME280;5069;49.306;8.636;2023-12-20T05:20:05;100737.47;;;6.23;100.00
10060;BME280;5069;49.306;8.636;2023-12-20T05:23:06;100754.06;;;6.23;100.00
10060;BME280;5069;49.306;8.636;2023-12-20T05:26:08;100754.88;;;6.29;100.00
10060;BME280;5069;49.306;8.636;2023-12-20T05:29:09;100763.66;;;6.23;100.00
10060;BME280;5069;49.306;8.636;2023-12-20T05:32:11;100749.63;;;6.29;100.00
10060;BME280;5069;49.306;8.636;2023-12-20T05:35:12;100749.63;;;6.27;100.00
10060;BME280;5069;49.306;8.636;2023-12-20T05:38:14;100751.34;;;6.31;100.00
10060;BME280;5069;49.306;8.636;2023-12-20T05:41:16;100758.34;;;6.32;100.00
10060;BME280;5069;49.306;8.636;2023-12-20T05:44:17;100757.34;;;6.41;100.00
10060;BME280;5069;49.306;8.636;2023-12-20T05:47:18;100753.09;;;6.31;100.00
10060;BME280;5069;49.306;8.636;2023-12-20T05:50:20;100742.59;;;6.35;100.00
10060;BME280;5069;49.306;8.636;2023-12-20T05:53:22;100759.25;;;6.27;100.00
10060;BME280;5069;49.306;8.636;2023-12-20T05:56:23;100765.34;;;6.29;100.00
10060;BME280;5069;49.306;8.636;2023-12-20T05:59:25;100778.47;;;6.26;100.00
10060;BME280;5069;49.306;8.636;2023-12-20T06:02:26;100794.22;;;6.19;100.00
10060;BME280;5069;49.306;8.636;2023-12-20T06:05:28;100799.47;;;6.19;100.00
10060;BME280;5069;49.306;8.636;2023-12-20T06:08:29;100804.59;;;6.29;100.00
10060;BME280;5069;49.306;8.636;2023-12-20T06:11:31;100809.03;;;6.22;100.00
10060;BME280;5069;49.306;8.636;2023-12-20T06:14:33;100811.69;;;6.17;100.00
10060;BME280;5069;49.306;8.636;2023-12-20T06:17:34;100823.81;;;6.28;100.00
10060;BME280;5069;49.306;8.636;2023-12-20T06:20:36;100822.94;;;6.27;100.00
10060;BME280;5069;49.306;8.636;2023-12-20T06:23:38;100826.47;;;6.26;100.00
10060;BME280;5069;49.306;8.636;2023-12-20T06:26:40;100834.19;;;6.38;100.00
10060;BME280;5069;49.306;8.636;2023-12-20T06:29:41;100826.38;;;6.35;100.00
10060;BME280;5069;49.306;8.636;2023-12-20T06:32:44;100835.03;;;6.40;100.00
10060;BME280;5069;49.306;8.636;2023-12-20T06:35:45;100829.84;;;6.36;100.00
10060;BME280;5069;49.306;8.636;2023-12-20T06:38:47;100836.03;;;6.30;100.00
10060;BME280;5069;49.306;8.636;2023-12-20T06:41:48;100855.22;;;6.31;100.00
10060;BME280;5069;49.306;8.636;2023-12-20T06:44:50;100861.34;;;6.27;100.00
10060;BME280;5069;49.306;8.636;2023-12-20T06:47:51;100863.06;;;6.29;100.00
10060;BME280;5069;49.306;8.636;2023-12-20T06:50:53;100879.63;;;6.33;100.00
10060;BME280;5069;49.306;8.636;2023-12-20T06:53:54;100876.13;;;6.34;100.00
10060;BME280;5069;49.306;8.636;2023-12-20T06:56:56;100868.31;;;6.32;100.00
10060;BME280;5069;49.306;8.636;2023-12-20T06:59:57;100870.94;;;6.32;100.00
10060;BME280;5069;49.306;8.636;2023-12-20T07:02:59;100877.00;;;6.34;100.00
10060;BME280;5069;49.306;8.636;2023-12-20T07:06:00;100872.66;;;6.32;100.00
10060;BME280;5069;49.306;8.636;2023-12-20T07:09:02;100876.13;;;6.34;100.00
10060;BME280;5069;49.306;8.636;2023-12-20T07:12:04;100869.13;;;6.36;100.00
10060;BME280;5069;49.306;8.636;2023-12-20T07:15:05;100869.91;;;6.48;100.00
10060;BME280;5069;49.306;8.636;2023-12-20T07:18:08;100872.56;;;6.41;100.00
10060;BME280;5069;49.306;8.636;2023-12-20T07:21:09;100874.38;;;6.33;100.00
10060;BME280;5069;49.306;8.636;2023-12-20T07:24:11;100864.81;;;6.27;100.00
10060;BME280;5069;49.306;8.636;2023-12-20T07:27:12;100876.25;;;6.18;100.00
10060;BME280;5069;49.306;8.636;2023-12-20T07:30:14;100877.19;;;6.11;100.00
10060;BME280;5069;49.306;8.636;2023-12-20T07:33:16;100862.34;;;6.10;100.00
10060;BME280;5069;49.306;8.636;2023-12-20T07:36:19;100864.13;;;6.05;100.00
10060;BME280;5069;49.306;8.636;2023-12-20T07:39:21;100876.44;;;5.97;100.00
10060;BME280;5069;49.306;8.636;2023-12-20T07:42:22;100874.69;;;5.93;100.00
10060;BME280;5069;49.306;8.636;2023-12-20T07:45:24;100874.72;;;5.87;100.00
10060;BME280;5069;49.306;8.636;2023-12-20T07:48:25;100879.09;;;5.88;100.00
10060;BME280;5069;49.306;8.636;2023-12-20T07:51:27;100872.13;;;5.81;100.00
10060;BME280;5069;49.306;8.636;2023-12-20T07:54:28;100887.88;;;5.73;100.00
10060;BME280;5069;49.306;8.636;2023-12-20T07:57:30;100894.00;;;5.72;100.00
10060;BME280;5069;49.306;8.636;2023-12-20T08:00:31;100898.34;;;5.73;100.00
10060;BME280;5069;49.306;8.636;2023-12-20T08:03:33;100912.28;;;5.78;100.00
10060;BME280;5069;49.306;8.636;2023-12-20T08:06:35;100907.00;;;5.85;100.00
10060;BME280;5069;49.306;8.636;2023-12-20T08:09:36;100902.66;;;5.85;100.00
10060;BME280;5069;49.306;8.636;2023-12-20T08:12:38;100907.88;;;5.88;100.00
10060;BME280;5069;49.306;8.636;2023-12-20T08:15:41;100913.06;;;5.94;100.00
10060;BME280;5069;49.306;8.636;2023-12-20T08:18:43;100909.53;;;6.00;100.00
10060;BME280;5069;49.306;8.636;2023-12-20T08:21:44;100906.97;;;5.97;100.00
10060;BME280;5069;49.306;8.636;2023-12-20T08:24:46;100911.28;;;6.02;100.00
10060;BME280;5069;49.306;8.636;2023-12-20T08:27:47;100898.19;;;6.01;100.00
10060;BME280;5069;49.306;8.636;2023-12-20T08:30:49;100910.41;;;6.03;100.00
10060;BME280;5069;49.306;8.636;2023-12-20T08:33:55;100915.59;;;6.09;100.00
10060;BME280;5069;49.306;8.636;2023-12-20T08:36:57;100919.91;;;6.16;100.00
10060;BME280;5069;49.306;8.636;2023-12-20T08:39:58;100911.16;;;6.20;100.00
10060;BME280;5069;49.306;8.636;2023-12-20T08:43:00;100910.22;;;6.28;100.00
10060;BME280;5069;49.306;8.636;2023-12-20T08:46:01;100904.00;;;6.41;100.00
10060;BME280;5069;49.306;8.636;2023-12-20T08:49:03;100905.69;;;6.46;100.00
10060;BME280;5069;49.306;8.636;2023-12-20T08:52:05;100905.59;;;6.60;100.00
10060;BME280;5069;49.306;8.636;2023-12-20T08:55:07;100902.06;;;6.61;100.00
10060;BME280;5069;49.306;8.636;2023-12-20T08:58:09;100898.56;;;6.62;100.00
10060;BME280;5069;49.306;8.636;2023-12-20T09:01:11;100896.75;;;6.67;100.00
10060;BME280;5069;49.306;8.636;2023-12-20T09:04:12;100896.81;;;6.64;100.00
10060;BME280;5069;49.306;8.636;2023-12-20T09:07:25;100897.56;;;6.74;100.00
10060;BME280;5069;49.306;8.636;2023-12-20T09:10:27;100899.31;;;6.78;100.00
10060;BME280;5069;49.306;8.636;2023-12-20T09:13:29;100896.75;;;6.72;100.00
10060;BME280;5069;49.306;8.636;2023-12-20T09:16:31;100896.81;;;6.64;100.00
10060;BME280;5069;49.306;8.636;2023-12-20T09:19:33;100889.03;;;6.55;100.00
10060;BME280;5069;49.306;8.636;2023-12-20T09:22:35;100897.72;;;6.60;100.00
10060;BME280;5069;49.306;8.636;2023-12-20T09:25:36;100888.09;;;6.62;100.00
10060;BME280;5069;49.306;8.636;2023-12-20T09:28:38;100888.91;;;6.67;100.00
10060;BME280;5069;49.306;8.636;2023-12-20T09:31:41;100894.06;;;6.76;100.00
10060;BME280;5069;49.306;8.636;2023-12-20T09:34:45;100888.81;;;6.76;100.00
10060;BME280;5069;49.306;8.636;2023-12-20T09:37:46;100896.50;;;6.93;100.00
10060;BME280;5069;49.306;8.636;2023-12-20T09:40:49;100898.31;;;6.86;100.00
10060;BME280;5069;49.306;8.636;2023-12-20T09:43:52;100897.34;;;6.95;100.00
10060;BME280;5069;49.306;8.636;2023-12-20T09:46:57;100891.22;;;6.96;100.00
10060;BME280;5069;49.306;8.636;2023-12-20T09:50:00;100893.91;;;6.90;100.00
10060;BME280;5069;49.306;8.636;2023-12-20T09:53:02;100898.28;;;6.89;100.00
10060;BME280;5069;49.306;8.636;2023-12-20T09:56:06;100897.38;;;6.93;100.00
10060;BME280;5069;49.306;8.636;2023-12-20T09:59:08;100889.47;;;6.96;100.00
10060;BME280;5069;49.306;8.636;2023-12-20T10:02:13;100892.91;;;7.01;100.00
10060;BME280;5069;49.306;8.636;2023-12-20T10:05:17;100897.06;;;7.22;100.00
10060;BME280;5069;49.306;8.636;2023-12-20T10:08:22;100889.88;;;7.35;100.00
10060;BME280;5069;49.306;8.636;2023-12-20T10:11:24;100889.19;;;7.21;100.00
10060;BME280;5069;49.306;8.636;2023-12-20T10:14:26;100873.97;;;7.48;100.00
10060;BME280;5069;49.306;8.636;2023-12-20T10:17:27;100886.88;;;7.65;100.00
10060;BME280;5069;49.306;8.636;2023-12-20T10:20:31;100877.06;;;7.79;100.00
10060;BME280;5069;49.306;8.636;2023-12-20T10:23:33;100886.47;;;7.93;100.00
10060;BME280;5069;49.306;8.636;2023-12-20T10:26:34;100901.66;;;7.69;100.00
10060;BME280;5069;49.306;8.636;2023-12-20T10:29:37;100881.75;;;7.56;100.00
10060;BME280;5069;49.306;8.636;2023-12-20T10:32:39;100862.63;;;7.48;100.00
10060;BME280;5069;49.306;8.636;2023-12-20T10:35:42;100862.59;;;7.51;100.00
10060;BME280;5069;49.306;8.636;2023-12-20T10:38:49;100858.06;;;7.62;100.00
10060;BME280;5069;49.306;8.636;2023-12-20T10:41:51;100856.09;;;7.76;100.00
10060;BME280;5069;49.306;8.636;2023-12-20T10:44:53;100851.44;;;7.95;100.00
10060;BME280;5069;49.306;8.636;2023-12-20T10:47:56;100849.44;;;8.11;100.00
10060;BME280;5069;49.306;8.636;2023-12-20T10:50:57;100851.78;;;8.26;100.00
10060;BME280;5069;49.306;8.636;2023-12-20T10:53:59;100851.06;;;8.18;100.00
10060;BME280;5069;49.306;8.636;2023-12-20T10:57:03;100849.50;;;8.06;100.00
10060;BME280;5069;49.306;8.636;2023-12-20T11:00:08;100856.69;;;7.94;100.00
10060;BME280;5069;49.306;8.636;2023-12-20T11:03:12;100854.25;;;7.83;100.00
10060;BME280;5069;49.306;8.636;2023-12-20T11:06:33;100855.22;;;7.77;100.00
10060;BME280;5069;49.306;8.636;2023-12-20T11:09:41;100851.81;;;7.69;100.00
10060;BME280;5069;49.306;8.636;2023-12-20T11:13:23;100850.22;;;7.59;100.00
10060;BME280;5069;49.306;8.636;2023-12-20T11:16:28;100857.38;;;7.48;100.00
10060;BME280;5069;49.306;8.636;2023-12-20T11:22:59;100833.69;;;7.53;100.00
10060;BME280;5069;49.306;8.636;2023-12-20T11:26:02;100841.59;;;7.51;100.00
10060;BME280;5069;49.306;8.636;2023-12-20T11:29:32;100831.88;;;7.58;100.00
10060;BME280;5069;49.306;8.636;2023-12-20T11:32:38;100831.13;;;7.51;100.00
10060;BME280;5069;49.306;8.636;2023-12-20T11:35:41;100836.44;;;7.45;100.00
10060;BME280;5069;49.306;8.636;2023-12-20T11:39:09;100820.56;;;7.54;100.00
10060;BME280;5069;49.306;8.636;2023-12-20T11:42:14;100811.03;;;7.47;100.00
10060;BME280;5069;49.306;8.636;2023-12-20T11:45:19;100824.16;;;7.47;100.00
10060;BME280;5069;49.306;8.636;2023-12-20T11:48:23;100824.06;;;7.55;100.00
10060;BME280;5069;49.306;8.636;2023-12-20T11:51:24;100827.56;;;7.52;100.00
10060;BME280;5069;49.306;8.636;2023-12-20T11:54:30;100825.94;;;7.45;100.00
10060;BME280;5069;49.306;8.636;2023-12-20T11:57:32;100825.91;;;7.48;100.00
10060;BME280;5069;49.306;8.636;2023-12-20T12:00:33;100820.72;;;7.45;100.00
10060;BME280;5069;49.306;8.636;2023-12-20T12:03:35;100834.69;;;7.44;100.00
10060;BME280;5069;49.306;8.636;2023-12-20T12:06:37;100819.75;;;7.49;100.00
10060;BME280;5069;49.306;8.636;2023-12-20T12:09:39;100801.34;;;7.52;100.00
10060;BME280;5069;49.306;8.636;2023-12-20T12:12:40;100810.06;;;7.54;100.00
10060;BME280;5069;49.306;8.636;2023-12-20T12:15:42;100811.75;;;7.58;100.00
10060;BME280;5069;49.306;8.636;2023-12-20T12:18:45;100818.72;;;7.59;100.00
10060;BME280;5069;49.306;8.636;2023-12-20T12:21:46;100811.84;;;7.52;100.00
10060;BME280;5069;49.306;8.636;2023-12-20T12:24:48;100823.25;;;7.51;100.00
10060;BME280;5069;49.306;8.636;2023-12-20T12:27:51;100823.19;;;7.54;100.00
10060;BME280;5069;49.306;8.636;2023-12-20T12:31:00;100825.09;;;7.41;100.00
10060;BME280;5069;49.306;8.636;2023-12-20T12:34:01;100817.22;;;7.43;100.00
10060;BME280;5069;49.306;8.636;2023-12-20T12:37:04;100816.50;;;7.33;100.00
10060;BME280;5069;49.306;8.636;2023-12-20T12:40:09;100823.44;;;7.36;100.00
10060;BME280;5069;49.306;8.636;2023-12-20T12:43:11;100817.38;;;7.31;100.00
10060;BME280;5069;49.306;8.636;2023-12-20T12:46:14;100810.47;;;7.25;100.00
10060;BME280;5069;49.306;8.636;2023-12-20T12:49:15;100822.59;;;7.34;100.00
10060;BME280;5069;49.306;8.636;2023-12-20T12:52:17;100822.69;;;7.28;100.00
10060;BME280;5069;49.306;8.636;2023-12-20T12:55:19;100821.75;;;7.32;100.00
10060;BME280;5069;49.306;8.636;2023-12-20T12:58:20;100831.34;;;7.33;100.00
10060;BME280;5069;49.306;8.636;2023-12-20T13:01:22;100829.53;;;7.38;100.00
10060;BME280;5069;49.306;8.636;2023-12-20T13:04:23;100832.09;;;7.41;100.00
10060;BME280;5069;49.306;8.636;2023-12-20T13:07:25;100825.19;;;7.37;100.00
10060;BME280;5069;49.306;8.636;2023-12-20T13:10:27;100819.19;;;7.29;100.00
10060;BME280;5069;49.306;8.636;2023-12-20T13:13:28;100808.63;;;7.32;100.00
10060;BME280;5069;49.306;8.636;2023-12-20T13:16:30;100813.66;;;7.47;100.00
10060;BME280;5069;49.306;8.636;2023-12-20T13:19:32;100799.84;;;7.36;100.00
10060;BME280;5069;49.306;8.636;2023-12-20T13:22:33;100811.19;;;7.36;100.00
10060;BME280;5069;49.306;8.636;2023-12-20T13:25:35;100801.56;;;7.38;100.00
10060;BME280;5069;49.306;8.636;2023-12-20T13:28:37;100791.09;;;7.35;100.00
10060;BME280;5069;49.306;8.636;2023-12-20T13:31:38;100784.94;;;7.38;100.00
10060;BME280;5069;49.306;8.636;2023-12-20T13:34:41;100783.28;;;7.34;100.00
10060;BME280;5069;49.306;8.636;2023-12-20T13:37:43;100774.53;;;7.33;100.00
10060;BME280;5069;49.306;8.636;2023-12-20T13:40:46;100765.78;;;7.33;100.00
10060;BME280;5069;49.306;8.636;2023-12-20T13:43:47;100754.44;;;7.31;100.00
10060;BME280;5069;49.306;8.636;2023-12-20T13:46:49;100748.50;;;7.20;100.00
10060;BME280;5069;49.306;8.636;2023-12-20T13:49:51;100744.97;;;7.22;100.00
10060;BME280;5069;49.306;8.636;2023-12-20T13:52:53;100739.75;;;7.21;100.00
10060;BME280;5069;49.306;8.636;2023-12-20T13:55:54;100743.25;;;7.21;100.00
10060;BME280;5069;49.306;8.636;2023-12-20T13:58:56;100733.66;;;7.19;100.00
10060;BME280;5069;49.306;8.636;2023-12-20T14:01:57;100743.22;;;7.23;100.00
10060;BME280;5069;49.306;8.636;2023-12-20T14:04:59;100740.63;;;7.20;100.00
10060;BME280;5069;49.306;8.636;2023-12-20T14:08:01;100732.69;;;7.26;100.00
10060;BME280;5069;49.306;8.636;2023-12-20T14:11:02;100723.06;;;7.25;100.00
10060;BME280;5069;49.306;8.636;2023-12-20T14:14:04;100738.94;;;7.16;100.00
10060;BME280;5069;49.306;8.636;2023-12-20T14:17:06;100739.03;;;7.10;100.00
10060;BME280;5069;49.306;8.636;2023-12-20T14:20:08;100740.69;;;7.17;100.00
10060;BME280;5069;49.306;8.636;2023-12-20T14:23:09;100725.91;;;7.11;100.00
10060;BME280;5069;49.306;8.636;2023-12-20T14:26:11;100729.34;;;7.13;100.00
10060;BME280;5069;49.306;8.636;2023-12-20T14:29:15;100733.78;;;7.10;100.00
10060;BME280;5069;49.306;8.636;2023-12-20T14:32:17;100744.28;;;7.10;100.00
10060;BME280;5069;49.306;8.636;2023-12-20T14:35:18;100737.28;;;7.10;100.00
10060;BME280;5069;49.306;8.636;2023-12-20T14:38:21;100726.63;;;7.21;100.00
10060;BME280;5069;49.306;8.636;2023-12-20T14:41:22;100720.50;;;7.22;100.00
10060;BME280;5069;49.306;8.636;2023-12-20T14:44:25;100718.75;;;7.22;100.00
10060;BME280;5069;49.306;8.636;2023-12-20T14:47:27;100709.22;;;7.17;100.00
10060;BME280;5069;49.306;8.636;2023-12-20T14:50:28;100711.00;;;7.13;100.00
10060;BME280;5069;49.306;8.636;2023-12-20T14:53:30;100704.97;;;7.06;100.00
10060;BME280;5069;49.306;8.636;2023-12-20T14:56:31;100712.97;;;7.00;100.00
10060;BME280;5069;49.306;8.636;2023-12-20T14:59:33;100707.72;;;7.00;100.00
10060;BME280;5069;49.306;8.636;2023-12-20T15:02:34;100704.41;;;6.88;100.00
10060;BME280;5069;49.306;8.636;2023-12-20T15:05:36;100709.59;;;6.89;100.00
10060;BME280;5069;49.306;8.636;2023-12-20T15:08:38;100718.47;;;6.81;100.00
10060;BME280;5069;49.306;8.636;2023-12-20T15:11:39;100720.22;;;6.79;100.00
10060;BME280;5069;49.306;8.636;2023-12-20T15:14:41;100727.25;;;6.75;100.00
10060;BME280;5069;49.306;8.636;2023-12-20T15:17:43;100736.00;;;6.74;100.00
10060;BME280;5069;49.306;8.636;2023-12-20T15:20:44;100720.19;;;6.83;100.00
10060;BME280;5069;49.306;8.636;2023-12-20T15:23:46;100722.75;;;6.86;100.00
10060;BME280;5069;49.306;8.636;2023-12-20T15:26:54;100714.94;;;6.83;100.00
10060;BME280;5069;49.306;8.636;2023-12-20T15:29:56;100705.25;;;6.88;100.00
10060;BME280;5069;49.306;8.636;2023-12-20T15:32:58;100706.16;;;6.87;100.00
10060;BME280;5069;49.306;8.636;2023-12-20T15:35:59;100712.28;;;6.86;100.00
10060;BME280;5069;49.306;8.636;2023-12-20T15:39:01;100720.06;;;6.91;100.00
10060;BME280;5069;49.306;8.636;2023-12-20T15:42:03;100717.50;;;6.86;100.00
10060;BME280;5069;49.306;8.636;2023-12-20T15:45:05;100709.50;;;6.98;100.00
10060;BME280;5069;49.306;8.636;2023-12-20T15:48:08;100716.41;;;7.02;100.00
10060;BME280;5069;49.306;8.636;2023-12-20T15:51:11;100701.53;;;7.04;100.00
10060;BME280;5069;49.306;8.636;2023-12-20T15:54:12;100690.16;;;7.05;100.00
10060;BME280;5069;49.306;8.636;2023-12-20T15:57:14;100676.22;;;7.03;100.00
10060;BME280;5069;49.306;8.636;2023-12-20T16:00:19;100697.88;;;7.15;100.00
10060;BME280;5069;49.306;8.636;2023-12-20T16:03:21;100682.16;;;7.13;100.00
10060;BME280;5069;49.306;8.636;2023-12-20T16:06:26;100671.69;;;7.13;100.00
10060;BME280;5069;49.306;8.636;2023-12-20T16:09:28;100684.09;;;7.02;100.00